Hobby, TX

9:57 AM CDT on April 27, 2015 (GMT -0500)
Hobby | | Change Station
CLOSE
Current Station
Airport
Location: Houston,
Elevation: 46 ft
Nearby Weather Stations

Elev 46 ft 29.64 °N, 95.28 °W | Updated 24 minutes ago

Overcast
Overcast
72 °F
Feels Like 72 °F
N
12
Wind Variable Wind from ENE

Today
High -- | Low -- °F
--% Chance of Precip.
Yesterday
High -- | Low -- °F
Precip. -- in
6:42 AM 7:55 PM
Waxing Gibbous, 65% visible
Pressure 29.66 in
Visibility 10.0 miles
Clouds Scattered Clouds 2700 ft
Scattered Clouds 7000 ft
Overcast 25000 ft
Dew Point 64 °F
Humidity 78%
Rainfall 0.11 in
Snow Depth Not available.
UV 1 out of 12
Pollen 7.50 out of 12
Air Quality Not available.
Flu Activity Local Activity
SPECI KHOU 271433Z 07010KT 10SM SCT027 SCT070 OVC250 22/18 A2966 RMK AO2

More Conditions Fewer Conditions

Pressure 29.66 in
Visibility 10.0 miles
Clouds Scattered Clouds 2700 ft
Scattered Clouds 7000 ft
Overcast 25000 ft
Dew Point 64 °F
Humidity 78%
Rainfall 0.11 in
Snow Depth Not available.
UV 1 out of 12
Pollen 7.50 out of 12
Air Quality Not available.
Flu Activity Local Activity
SPECI KHOU 271433Z 07010KT 10SM SCT027 SCT070 OVC250 22/18 A2966 RMK AO2

More Conditions Fewer Conditions

10-Day Weather Forecast

Almanac

Astronomy

Apr. 27, 2015 Rise Set
Actual Time
Civil Twilight
Nautical Twilight
Astronomical Twilight
Moon
Length of Visible Light
Length of Day
Tomorrow will be .
, % of the Moon is Illuminated

Today's Extremes

State Highs State Lows

Community

WunderPhotos

Upload Photos

1,817,321 photos uploaded!

WunderBlogs® & News

Nearby

Air Quality

  Air Quality AQ Index Pollutant
Not available.

Snow Depth

Station Depth Elevation

Earthquake Activity

City Distance Mag. Time & Date
Minimum magnitude displayed is 2.5.

Coastal Water Temperatures

Place Temperature

Stations

Nearby Weather Stations

Station Location Temp. Windchill Dew Point Humidity Wind Precip. Elev Updated Type